Meadville, Mississippi
Current Conditions -  °F | °C
As of 11:55 AM on Saturday 20 Dec 2014 (Local Time) from KHEZ Reporting Station
Few Clouds Few Clouds  
Wind Chill: 54°   Ceiling: Unl
Heat Index: 54°   Visibility: 10mi
Dew Point: 45°   Wind: 12mph
Humidity: 72%   Direction: 30°NNE
Pressure: 30.19"   Gusts: NA
Location:  31.47°N, 90.9°W
Report Text: KHEZ 201755Z AUTO 03010KT 10SM FEW022 12/07 A3019 RMK AO1 10120 20070 57010
Loading
Personal Weather Stations






























Interactive Weather Map New forecast layout! Learn more

10-Day Weather Forecast

Advertisements
Track Severe Weather on mobile